Time;durP1;ratioP1;P1;durP2;ratioP2;P2;SDS_P1;SDS_P2;PMS_P1;PMS_P2;Temp;Humidity;BMP_temperature;BMP_pressure;BME280_temperature;BME280_humidity;BME280_pressure;Samples;Min_cycle;Max_cycle;Signal;HPM_P1;HPM_P2
2022/02/20 00:04:03;;;;;;;0.93;0.83;;;17.40;63.10;;;;;;10389662;28;20209;-63
2022/02/20 00:09:25;;;;;;;2.13;1.00;;;17.50;63.10;;;;;;10411282;28;20213;-63
2022/02/20 00:14:49;;;;;;;1.80;0.93;;;17.40;63.00;;;;;;10413756;28;20201;-63
2022/02/20 00:20:11;;;;;;;1.67;1.10;;;17.40;63.10;;;;;;10413135;28;20221;-63
2022/02/20 00:25:35;;;;;;;1.13;0.80;;;17.40;63.10;;;;;;10412138;28;20198;-63
2022/02/20 00:30:58;;;;;;;1.77;0.83;;;17.40;63.00;;;;;;10413349;28;20217;-63
2022/02/20 00:36:20;;;;;;;1.17;0.93;;;17.40;63.10;;;;;;10406577;28;20219;-63
2022/02/20 00:41:42;;;;;;;1.20;0.90;;;17.40;63.10;;;;;;10413192;28;20214;-63
2022/02/20 00:47:06;;;;;;;0.63;0.50;;;17.40;63.10;;;;;;10412514;28;20197;-63
2022/02/20 00:52:28;;;;;;;1.63;0.80;;;17.40;63.10;;;;;;10405477;28;20198;-63
2022/02/20 00:57:50;;;;;;;1.13;0.80;;;17.40;63.00;;;;;;10411199;28;20241;-63
2022/02/20 01:03:14;;;;;;;1.40;0.70;;;17.40;63.00;;;;;;10411654;28;20198;-63
2022/02/20 01:08:36;;;;;;;0.87;0.70;;;17.40;63.00;;;;;;10411581;28;20232;-63
2022/02/20 01:13:58;;;;;;;1.40;0.57;;;17.40;63.00;;;;;;10411314;28;20667;-63
2022/02/20 01:19:22;;;;;;;0.77;0.70;;;17.40;63.00;;;;;;10400245;28;20234;-63
2022/02/20 01:24:44;;;;;;;1.33;0.80;;;17.40;63.00;;;;;;10400753;28;20193;-63
2022/02/20 01:30:07;;;;;;;0.77;0.67;;;17.40;63.00;;;;;;10403591;28;20206;-63
2022/02/20 01:35:31;;;;;;;0.73;0.67;;;17.40;63.00;;;;;;10410343;28;20213;-63
2022/02/20 01:40:55;;;;;;;0.90;0.80;;;17.40;63.00;;;;;;10408195;28;20675;-63
2022/02/20 01:46:17;;;;;;;1.57;0.67;;;17.40;63.00;;;;;;10392024;28;20541;-64
2022/02/20 01:51:41;;;;;;;0.90;0.70;;;17.40;63.10;;;;;;10411050;28;20214;-64
2022/02/20 01:57:04;;;;;;;1.00;0.70;;;17.40;63.00;;;;;;10409352;28;20225;-64
2022/02/20 02:02:26;;;;;;;1.03;0.60;;;17.40;63.00;;;;;;10408484;28;20332;-64
2022/02/20 02:07:52;;;;;;;1.23;0.80;;;17.40;63.00;;;;;;10409362;28;20824;-64
2022/02/20 02:13:14;;;;;;;1.37;0.80;;;17.40;63.00;;;;;;10408085;28;20194;-64
2022/02/20 02:18:39;;;;;;;0.50;0.50;;;17.40;62.90;;;;;;10398408;28;20231;-64
2022/02/20 02:24:03;;;;;;;1.13;0.70;;;17.40;62.90;;;;;;10367561;28;20198;-64
2022/02/20 02:29:27;;;;;;;1.30;0.70;;;17.40;63.00;;;;;;10369493;28;20217;-64
2022/02/20 02:34:49;;;;;;;0.63;0.63;;;17.40;63.00;;;;;;10409490;28;20201;-64
2022/02/20 02:40:13;;;;;;;0.73;0.57;;;17.40;63.00;;;;;;10408268;28;20228;-64
2022/02/20 02:45:35;;;;;;;1.40;0.97;;;17.40;63.00;;;;;;10408673;28;20198;-64
2022/02/20 02:50:59;;;;;;;0.50;0.47;;;17.40;62.90;;;;;;10400361;28;20214;-63
2022/02/20 02:56:23;;;;;;;0.97;0.70;;;17.40;63.10;;;;;;10408102;28;20686;-63
2022/02/20 03:01:47;;;;;;;0.60;0.50;;;17.40;63.00;;;;;;10408011;28;20210;-63
2022/02/20 03:07:10;;;;;;;0.83;0.67;;;17.40;63.00;;;;;;10386854;28;20660;-63
2022/02/20 03:12:33;;;;;;;0.90;0.60;;;17.40;63.00;;;;;;10408135;28;20246;-63
2022/02/20 03:17:55;;;;;;;0.87;0.73;;;17.40;63.00;;;;;;10404505;28;20229;-63
2022/02/20 03:23:17;;;;;;;0.50;0.50;;;17.40;63.00;;;;;;10367391;28;20672;-63
2022/02/20 03:28:41;;;;;;;0.50;0.40;;;17.40;62.90;;;;;;10394884;28;20221;-63
2022/02/20 03:34:03;;;;;;;0.53;0.50;;;17.30;62.80;;;;;;10415513;23;20230;-67
2022/02/20 03:39:25;;;;;;;0.53;0.50;;;17.30;62.90;;;;;;10376666;28;20226;-67
2022/02/20 03:44:49;;;;;;;0.63;0.63;;;17.40;62.80;;;;;;10411727;28;20675;-67
2022/02/20 03:50:12;;;;;;;1.30;0.60;;;17.30;62.70;;;;;;10413712;28;20221;-67
2022/02/20 03:55:34;;;;;;;1.53;0.57;;;17.40;62.80;;;;;;10414079;28;20217;-67
2022/02/20 04:00:58;;;;;;;0.70;0.53;;;17.40;62.90;;;;;;10414851;28;20293;-67
2022/02/20 04:06:20;;;;;;;0.70;0.50;;;17.30;62.80;;;;;;10413823;28;20201;-67
2022/02/20 04:11:42;;;;;;;0.60;0.37;;;17.30;62.80;;;;;;10415171;28;20218;-67
2022/02/20 04:17:06;;;;;;;0.50;0.50;;;17.40;62.80;;;;;;10406840;28;20223;-67
2022/02/20 04:22:28;;;;;;;1.13;0.50;;;17.30;62.80;;;;;;10372188;28;20576;-67
2022/02/20 04:27:50;;;;;;;0.60;0.53;;;17.30;62.70;;;;;;10372361;28;20218;-67
2022/02/20 04:33:13;;;;;;;0.60;0.50;;;17.40;62.70;;;;;;10379993;28;20214;-67
2022/02/20 04:38:35;;;;;;;0.93;0.50;;;17.30;62.60;;;;;;10414056;28;20222;-67
2022/02/20 04:43:58;;;;;;;0.90;0.40;;;17.30;62.60;;;;;;10411799;28;20193;-67
2022/02/20 04:49:21;;;;;;;0.37;0.37;;;17.30;62.70;;;;;;10411245;28;20210;-67
2022/02/20 04:54:43;;;;;;;0.60;0.50;;;17.30;62.60;;;;;;10403915;28;20190;-67
2022/02/20 05:00:08;;;;;;;0.80;0.50;;;17.30;62.60;;;;;;10411621;28;20228;-67
2022/02/20 05:05:32;;;;;;;0.70;0.40;;;17.40;62.80;;;;;;10411822;28;20190;-67
2022/02/20 05:10:55;;;;;;;0.30;0.30;;;17.30;62.70;;;;;;10413145;28;20217;-67
2022/02/20 05:16:17;;;;;;;0.90;0.60;;;17.30;62.80;;;;;;10411799;28;20197;-67
2022/02/20 05:21:40;;;;;;;0.53;0.40;;;17.30;62.90;;;;;;10393798;28;20210;-67
2022/02/20 05:27:03;;;;;;;0.40;0.40;;;17.30;62.80;;;;;;10371140;28;20198;-67
2022/02/20 05:32:26;;;;;;;0.37;0.27;;;17.30;62.80;;;;;;10392513;28;20693;-67
2022/02/20 05:37:51;;;;;;;0.47;0.40;;;17.30;62.80;;;;;;10412265;28;20225;-67
2022/02/20 05:43:13;;;;;;;0.43;0.40;;;17.40;62.80;;;;;;10419598;28;20217;-67
2022/02/20 05:48:36;;;;;;;0.60;0.50;;;17.30;62.70;;;;;;10399959;28;20201;-67
2022/02/20 05:54:00;;;;;;;0.83;0.47;;;17.30;62.70;;;;;;10409393;28;20200;-67
2022/02/20 05:59:22;;;;;;;0.53;0.50;;;17.30;62.70;;;;;;10408579;28;20604;-67
2022/02/20 06:04:44;;;;;;;0.30;0.30;;;17.40;63.50;;;;;;10374615;28;20202;-66
2022/02/20 06:10:09;;;;;;;0.30;0.30;;;17.40;62.80;;;;;;10368003;28;20584;-68
2022/02/20 06:15:31;;;;;;;0.63;0.50;;;17.30;62.70;;;;;;10378256;28;20670;-66
2022/02/20 06:20:53;;;;;;;0.50;0.50;;;17.40;62.70;;;;;;10405160;28;20727;-66
2022/02/20 06:26:17;;;;;;;0.43;0.43;;;17.40;62.70;;;;;;10409515;28;20587;-67
2022/02/20 06:31:40;;;;;;;0.33;0.33;;;17.40;62.70;;;;;;10409664;28;20225;-66
2022/02/20 06:37:03;;;;;;;0.40;0.40;;;17.40;62.70;;;;;;10408206;28;20256;-67
2022/02/20 06:42:26;;;;;;;0.87;0.40;;;17.40;62.50;;;;;;10410402;28;20193;-67
2022/02/20 06:47:48;;;;;;;0.40;0.40;;;17.40;62.50;;;;;;10409130;28;20217;-70
2022/02/20 06:53:11;;;;;;;0.80;0.40;;;17.40;62.50;;;;;;10406245;28;20712;-66
2022/02/20 06:58:34;;;;;;;0.20;0.20;;;17.40;62.60;;;;;;10416803;28;20407;-67
2022/02/20 07:03:56;;;;;;;0.37;0.20;;;17.40;62.50;;;;;;10406742;28;20190;-67
2022/02/20 07:09:18;;;;;;;0.40;0.30;;;17.40;62.60;;;;;;10406860;28;20313;-67
2022/02/20 07:14:42;;;;;;;0.40;0.40;;;17.40;62.60;;;;;;10409321;28;20194;-68
2022/02/20 07:20:05;;;;;;;0.50;0.30;;;17.40;62.60;;;;;;10412935;28;20225;-67
2022/02/20 07:25:27;;;;;;;0.40;0.30;;;17.40;62.50;;;;;;10414509;28;20197;-68
2022/02/20 07:30:51;;;;;;;0.53;0.37;;;17.40;62.60;;;;;;10416765;28;20606;-67
2022/02/20 07:36:13;;;;;;;0.20;0.20;;;17.40;62.60;;;;;;10415155;28;20201;-65
2022/02/20 07:41:35;;;;;;;0.40;0.40;;;17.40;62.60;;;;;;10418941;28;20232;-66
2022/02/20 07:46:58;;;;;;;0.40;0.30;;;17.40;62.50;;;;;;10412930;28;20201;-66
2022/02/20 07:52:21;;;;;;;0.33;0.33;;;17.40;62.50;;;;;;10410440;28;20194;-69
2022/02/20 07:57:43;;;;;;;0.63;0.30;;;17.40;62.50;;;;;;10408823;28;20725;-68
2022/02/20 08:03:09;;;;;;;0.47;0.40;;;17.40;62.50;;;;;;10408540;28;20691;-68
2022/02/20 08:08:31;;;;;;;0.50;0.40;;;17.40;62.40;;;;;;10407392;28;20216;-66
2022/02/20 08:13:53;;;;;;;0.30;0.30;;;17.40;62.50;;;;;;10412314;28;20395;-65
2022/02/20 08:19:16;;;;;;;0.60;0.40;;;17.40;62.40;;;;;;10396069;28;20232;-66
2022/02/20 08:24:39;;;;;;;0.30;0.30;;;17.40;62.00;;;;;;10378625;28;20214;-68
2022/02/20 08:30:01;;;;;;;1.60;0.70;;;17.40;62.20;;;;;;10413785;28;20228;-66
2022/02/20 08:35:25;;;;;;;0.53;0.50;;;17.40;62.40;;;;;;10412715;28;20206;-69
2022/02/20 08:40:47;;;;;;;0.60;0.40;;;17.40;62.40;;;;;;10414238;28;20225;-67
2022/02/20 08:46:09;;;;;;;0.80;0.73;;;17.40;62.40;;;;;;10413245;28;20193;-67
2022/02/20 08:51:33;;;;;;;1.57;0.90;;;17.40;62.30;;;;;;10415611;28;20217;-67
2022/02/20 08:56:55;;;;;;;0.97;0.70;;;17.40;62.40;;;;;;10405404;28;20694;-67
2022/02/20 09:02:17;;;;;;;1.80;0.90;;;17.40;62.40;;;;;;10411044;28;20197;-69
2022/02/20 09:07:41;;;;;;;1.67;1.23;;;17.40;62.40;;;;;;10411672;28;20225;-68
2022/02/20 09:13:03;;;;;;;1.10;1.00;;;17.40;62.40;;;;;;10412590;28;20201;-66
2022/02/20 09:18:26;;;;;;;2.20;1.23;;;17.40;62.50;;;;;;10397482;28;20213;-68
2022/02/20 09:23:50;;;;;;;1.00;0.90;;;17.40;62.50;;;;;;10410481;28;20706;-69
2022/02/20 09:29:12;;;;;;;1.17;0.97;;;17.40;62.50;;;;;;10401052;28;20217;-67
2022/02/20 09:34:35;;;;;;;2.10;1.03;;;17.40;62.50;;;;;;10410764;23;20430;-69
2022/02/20 09:39:58;;;;;;;1.57;1.23;;;17.40;62.50;;;;;;10364869;28;20599;-69
2022/02/20 09:45:20;;;;;;;2.20;1.33;;;17.40;62.50;;;;;;10371610;28;20218;-69
2022/02/20 09:50:43;;;;;;;1.20;1.00;;;17.40;62.50;;;;;;10393147;28;20195;-69
2022/02/20 09:56:07;;;;;;;1.47;1.13;;;17.40;62.50;;;;;;10397678;28;20655;-69
2022/02/20 10:01:29;;;;;;;1.90;1.07;;;17.40;62.40;;;;;;10388556;28;20209;-69
2022/02/20 10:06:51;;;;;;;2.37;1.20;;;17.40;62.50;;;;;;10395753;28;20226;-70
2022/02/20 10:12:22;;;;;;;2.50;1.10;;;17.40;62.50;;;;;;10410949;28;20665;-70
2022/02/20 10:17:44;;;;;;;1.67;1.03;;;17.40;62.50;;;;;;10378956;28;20214;-69
2022/02/20 10:23:07;;;;;;;1.53;1.00;;;17.40;62.70;;;;;;10405484;28;20566;-69
2022/02/20 10:28:31;;;;;;;1.70;1.13;;;17.40;62.70;;;;;;10365329;28;20855;-67
2022/02/20 10:34:04;;;;;;;1.00;0.90;;;17.40;62.60;;;;;;10377191;28;20248;-72
2022/02/20 10:39:28;;;;;;;1.33;0.90;;;17.40;62.50;;;;;;10374459;28;20229;-69
2022/02/20 10:44:54;;;;;;;3.13;1.17;;;17.40;62.60;;;;;;10363010;28;20462;-67
2022/02/20 10:50:18;;;;;;;1.20;1.03;;;17.40;62.60;;;;;;10379048;28;20195;-67
2022/02/20 10:55:42;;;;;;;3.10;1.38;;;17.40;62.60;;;;;;10375482;28;20434;-69
2022/02/20 11:01:06;;;;;;;4.03;1.30;;;18.30;59.50;;;;;;10378826;28;20214;-71
2022/02/20 11:06:29;;;;;;;3.00;1.03;;;17.80;61.20;;;;;;10375653;28;20225;-63
2022/02/20 11:11:54;;;;;;;4.23;1.60;;;17.60;61.90;;;;;;10374964;28;20240;-67
2022/02/20 11:17:22;;;;;;;6.17;2.83;;;17.50;62.30;;;;;;10440063;23;20240;-66
2022/02/20 11:22:49;;;;;;;10.07;3.30;;;17.50;61.90;;;;;;10429001;28;20205;-66
2022/02/20 11:28:11;;;;;;;9.85;3.67;;;17.50;62.20;;;;;;10431273;28;20439;-65
2022/02/20 11:33:36;;;;;;;10.90;3.08;;;18.40;59.60;;;;;;10437712;28;20443;-65
2022/02/20 11:39:10;;;;;;;6.97;2.65;;;18.70;58.20;;;;;;10366679;23;2095838;-56
2022/02/20 11:45:29;;;;;;;6.75;2.90;;;18.00;59.70;;;;;;10523426;27;20472;-58
2022/02/20 11:50:51;;;;;;;5.33;1.97;;;18.60;58.90;;;;;;10529879;28;20365;-61
2022/02/20 11:56:14;;;;;;;6.13;2.67;;;17.90;61.00;;;;;;10526355;28;20750;-61
2022/02/20 12:01:37;;;;;;;3.67;1.60;;;17.70;61.80;;;;;;10526820;28;20227;-62
2022/02/20 12:07:22;;;;;;;5.70;2.37;;;17.60;62.20;;;;;;10520596;28;20198;-61
2022/02/20 12:12:48;;;;;;;4.07;1.57;;;17.60;62.40;;;;;;10526558;28;20215;-62
2022/02/20 12:23:47;;;;;;;3.40;1.57;;;17.50;62.50;;;;;;10528788;28;20545;-61
2022/02/20 12:29:11;;;;;;;1.90;1.43;;;17.60;62.60;;;;;;10528072;28;20218;-61
2022/02/20 12:34:51;;;;;;;2.50;1.73;;;17.50;62.60;;;;;;10514423;22;20229;-62
2022/02/20 12:40:17;;;;;;;1.87;1.33;;;17.50;62.50;;;;;;10416873;28;20217;-62
2022/02/20 12:45:41;;;;;;;4.33;1.47;;;17.50;62.80;;;;;;10440322;28;20228;-62
2022/02/20 12:51:04;;;;;;;2.73;1.37;;;17.50;62.90;;;;;;10441573;28;20189;-60
2022/02/20 12:56:27;;;;;;;2.97;1.30;;;17.50;62.90;;;;;;10443280;28;20237;-63
2022/02/20 13:01:59;;;;;;;2.63;1.30;;;17.50;62.90;;;;;;10439903;28;20213;-62
2022/02/20 13:07:22;;;;;;;1.80;1.20;;;17.50;62.80;;;;;;10440772;28;20212;-63
2022/02/20 13:13:03;;;;;;;4.43;1.40;;;17.50;63.00;;;;;;10442507;28;20572;-63
2022/02/20 13:18:27;;;;;;;2.57;1.10;;;17.50;62.90;;;;;;10442225;28;20190;-63
2022/02/20 13:23:51;;;;;;;2.20;1.40;;;17.50;63.10;;;;;;10441567;28;20295;-62
2022/02/20 13:29:15;;;;;;;2.33;1.27;;;17.50;63.10;;;;;;10440979;28;20182;-62
2022/02/20 13:34:37;;;;;;;1.43;1.20;;;17.50;63.20;;;;;;10413823;28;20225;-62
2022/02/20 13:39:59;;;;;;;1.57;1.10;;;17.50;63.10;;;;;;10418120;28;20229;-62
2022/02/20 13:45:23;;;;;;;4.13;1.30;;;17.50;63.10;;;;;;10412961;28;20232;-62
2022/02/20 13:50:45;;;;;;;2.47;1.20;;;17.50;63.20;;;;;;10413303;28;20193;-62
2022/02/20 13:56:07;;;;;;;2.47;0.90;;;17.50;63.10;;;;;;10412557;28;20221;-63
2022/02/20 14:01:42;;;;;;;1.07;0.83;;;17.50;63.20;;;;;;10413147;28;20229;-63
2022/02/20 14:07:07;;;;;;;2.30;1.17;;;17.50;63.10;;;;;;10404750;28;20217;-63
2022/02/20 14:12:31;;;;;;;2.63;1.00;;;17.50;63.30;;;;;;10413428;28;20273;-63
2022/02/20 14:17:58;;;;;;;1.33;1.03;;;17.50;63.30;;;;;;10414076;28;20222;-63
2022/02/20 14:23:24;;;;;;;2.00;1.17;;;17.50;63.40;;;;;;10411733;28;20227;-62
2022/02/20 14:28:54;;;;;;;2.03;1.00;;;17.50;63.40;;;;;;10412291;28;20189;-63
2022/02/20 14:34:20;;;;;;;2.63;1.10;;;17.50;63.40;;;;;;10412584;28;20221;-62
2022/02/20 14:39:43;;;;;;;2.23;1.03;;;17.50;63.50;;;;;;10408680;28;20213;-62
2022/02/20 14:45:07;;;;;;;1.23;0.90;;;17.50;63.60;;;;;;10409639;28;20225;-61
2022/02/20 14:50:33;;;;;;;1.70;1.00;;;17.50;63.50;;;;;;10407997;28;20370;-62
2022/02/20 14:55:55;;;;;;;1.47;1.07;;;17.50;63.60;;;;;;10407054;28;21051;-62
2022/02/20 15:01:17;;;;;;;1.43;1.00;;;17.50;63.70;;;;;;10408904;28;20218;-64
2022/02/20 15:06:41;;;;;;;1.20;0.80;;;17.50;63.80;;;;;;10409950;28;20224;-63
2022/02/20 15:12:03;;;;;;;1.50;0.90;;;17.50;63.70;;;;;;10409239;28;20281;-66
2022/02/20 15:17:25;;;;;;;1.67;1.03;;;17.50;63.70;;;;;;10415742;28;20692;-61
2022/02/20 15:22:50;;;;;;;0.90;0.70;;;17.50;63.70;;;;;;10409492;28;20221;-63
2022/02/20 15:28:12;;;;;;;1.37;0.80;;;17.50;63.70;;;;;;10410010;28;20194;-63
2022/02/20 15:33:35;;;;;;;1.57;0.90;;;17.50;63.70;;;;;;10409566;28;20217;-63
2022/02/20 15:38:59;;;;;;;1.43;0.80;;;17.50;63.70;;;;;;10409932;28;20205;-63
2022/02/20 15:44:23;;;;;;;1.57;0.90;;;17.50;63.70;;;;;;10411467;28;20225;-63
2022/02/20 15:49:45;;;;;;;1.40;0.97;;;17.50;63.70;;;;;;10406814;28;20194;-63
2022/02/20 15:55:09;;;;;;;2.03;0.90;;;17.50;63.70;;;;;;10408246;28;20705;-63
2022/02/20 16:00:31;;;;;;;1.57;0.80;;;17.50;63.70;;;;;;10408693;28;20296;-63
2022/02/20 16:05:53;;;;;;;1.60;0.80;;;17.50;63.70;;;;;;10409032;28;20213;-63
2022/02/20 16:11:17;;;;;;;2.03;1.00;;;17.50;63.80;;;;;;10408607;28;20186;-62
2022/02/20 16:16:39;;;;;;;1.50;0.73;;;17.50;63.70;;;;;;10444092;28;20213;-60
2022/02/20 16:22:01;;;;;;;1.87;0.80;;;17.50;63.80;;;;;;10409000;28;20640;-61
2022/02/20 16:27:25;;;;;;;0.93;0.70;;;17.50;63.90;;;;;;10407863;28;20225;-63
2022/02/20 16:32:47;;;;;;;1.20;0.97;;;17.50;64.00;;;;;;10442266;28;20200;-63
2022/02/20 16:38:10;;;;;;;0.97;0.73;;;17.50;64.10;;;;;;10421142;28;20213;-63
2022/02/20 16:43:34;;;;;;;2.17;0.83;;;17.50;64.20;;;;;;10409133;28;20228;-63
2022/02/20 16:48:56;;;;;;;1.60;0.63;;;17.50;64.20;;;;;;10407288;28;20689;-63
2022/02/20 16:54:18;;;;;;;2.13;0.60;;;17.50;64.30;;;;;;10409046;28;20218;-63
2022/02/20 16:59:42;;;;;;;1.30;0.67;;;17.40;64.40;;;;;;10406097;28;20194;-63
2022/02/20 17:05:04;;;;;;;1.57;0.80;;;17.40;64.50;;;;;;10409094;28;20210;-63
2022/02/20 17:10:27;;;;;;;2.03;0.90;;;17.40;64.50;;;;;;10418625;28;20194;-62
2022/02/20 17:15:51;;;;;;;1.47;0.70;;;17.40;64.50;;;;;;10414952;28;20213;-63
2022/02/20 17:21:14;;;;;;;1.30;0.80;;;17.40;64.50;;;;;;10414765;28;20214;-63
2022/02/20 17:26:36;;;;;;;0.87;0.57;;;17.40;64.50;;;;;;10428144;28;20233;-63
2022/02/20 17:31:59;;;;;;;0.90;0.60;;;17.40;64.60;;;;;;10449281;28;20205;-62
2022/02/20 17:37:22;;;;;;;4.13;0.80;;;17.40;64.60;;;;;;10380726;28;20221;-63
2022/02/20 17:42:45;;;;;;;1.20;0.70;;;17.40;64.50;;;;;;10423484;28;20217;-62
2022/02/20 17:48:08;;;;;;;0.87;0.80;;;17.40;64.50;;;;;;10416014;28;20208;-62
2022/02/20 17:53:31;;;;;;;0.67;0.57;;;17.40;64.60;;;;;;10414766;28;20209;-62
2022/02/20 17:58:53;;;;;;;1.47;0.73;;;17.40;64.60;;;;;;10437687;28;20272;-62
2022/02/20 18:04:17;;;;;;;2.10;1.00;;;17.40;64.60;;;;;;10414487;28;20217;-62
2022/02/20 18:09:39;;;;;;;0.97;0.80;;;17.40;64.60;;;;;;10414440;28;20270;-63
2022/02/20 18:15:01;;;;;;;1.57;0.70;;;17.40;64.60;;;;;;10414135;28;20222;-63
2022/02/20 18:20:25;;;;;;;0.50;0.50;;;17.40;64.60;;;;;;10414046;28;20206;-63
2022/02/20 18:25:47;;;;;;;1.97;0.70;;;17.30;64.60;;;;;;10413784;28;20213;-63
2022/02/20 18:31:12;;;;;;;1.17;0.70;;;17.40;64.70;;;;;;10413376;28;20197;-63
2022/02/20 18:36:37;;;;;;;1.90;0.88;;;17.40;64.70;;;;;;10424944;22;20461;-62
2022/02/20 18:41:59;;;;;;;0.87;0.57;;;18.20;61.80;;;;;;10405809;28;20229;-62
2022/02/20 18:47:21;;;;;;;2.23;0.80;;;17.80;63.30;;;;;;10413333;28;20225;-59
2022/02/20 18:52:45;;;;;;;3.33;0.73;;;17.60;63.90;;;;;;10404307;28;20205;-57
2022/02/20 18:58:08;;;;;;;1.93;0.70;;;17.60;64.50;;;;;;10427909;28;20212;-56
2022/02/20 19:03:30;;;;;;;1.30;0.70;;;17.50;65.40;;;;;;10432164;28;20247;-60
2022/02/20 19:08:54;;;;;;;1.13;0.73;;;17.50;65.00;;;;;;10432045;28;20218;-58
2022/02/20 19:14:16;;;;;;;1.57;0.77;;;17.50;65.10;;;;;;10431182;28;20683;-59
2022/02/20 19:19:39;;;;;;;2.43;0.73;;;17.40;65.10;;;;;;10427728;28;20222;-59
2022/02/20 19:25:03;;;;;;;1.47;1.00;;;17.40;65.20;;;;;;10422705;28;20252;-56
2022/02/20 19:30:27;;;;;;;1.53;0.63;;;17.40;65.20;;;;;;10425614;28;20657;-58
2022/02/20 19:35:49;;;;;;;2.37;0.70;;;17.40;65.20;;;;;;10441406;28;20236;-59
2022/02/20 19:41:14;;;;;;;2.77;1.00;;;17.40;65.30;;;;;;10431108;28;20217;-58
2022/02/20 19:46:36;;;;;;;1.53;0.57;;;17.40;65.30;;;;;;10427230;28;20219;-58
2022/02/20 19:51:59;;;;;;;1.40;0.53;;;17.40;65.30;;;;;;10428273;28;20591;-59
2022/02/20 19:57:24;;;;;;;1.27;0.80;;;17.40;65.30;;;;;;10423425;28;20225;-60
2022/02/20 20:02:47;;;;;;;1.27;0.53;;;17.40;65.20;;;;;;10437873;28;20217;-60
2022/02/20 20:08:10;;;;;;;9.63;0.90;;;17.40;65.30;;;;;;10450776;28;20221;-59
2022/02/20 20:13:33;;;;;;;2.17;0.80;;;17.40;65.40;;;;;;10444477;28;20314;-58
2022/02/20 20:18:56;;;;;;;1.00;0.50;;;17.40;65.40;;;;;;10403852;28;20214;-58
2022/02/20 20:24:18;;;;;;;2.90;0.80;;;17.30;65.40;;;;;;10416180;28;20205;-58
2022/02/20 20:29:42;;;;;;;1.57;0.70;;;17.30;65.40;;;;;;10426347;28;20205;-59
2022/02/20 20:35:06;;;;;;;1.90;0.60;;;17.30;65.40;;;;;;10427388;28;20606;-58
2022/02/20 20:40:31;;;;;;;1.30;0.70;;;17.30;65.50;;;;;;10429655;28;20186;-58
2022/02/20 20:45:54;;;;;;;0.87;0.60;;;17.30;65.50;;;;;;10431752;28;20224;-59
2022/02/20 20:51:17;;;;;;;2.07;0.70;;;17.30;65.50;;;;;;10432943;28;20189;-58
2022/02/20 20:56:40;;;;;;;0.87;0.50;;;17.30;65.50;;;;;;10438279;28;20205;-59
2022/02/20 21:02:04;;;;;;;1.27;0.60;;;17.30;65.50;;;;;;10436928;28;20213;-58
2022/02/20 21:07:26;;;;;;;1.93;0.80;;;17.30;65.50;;;;;;10429283;28;20218;-58
2022/02/20 21:12:48;;;;;;;0.50;0.40;;;17.30;65.50;;;;;;10438501;28;20606;-59
2022/02/20 21:18:12;;;;;;;0.90;0.60;;;17.30;65.50;;;;;;10430272;28;20229;-59
2022/02/20 21:23:34;;;;;;;0.80;0.40;;;17.30;65.50;;;;;;10433643;28;20699;-60
2022/02/20 21:28:56;;;;;;;3.80;0.77;;;17.30;65.50;;;;;;10433485;28;20233;-59
2022/02/20 21:34:20;;;;;;;1.20;0.50;;;17.30;65.50;;;;;;10434781;28;20197;-59
2022/02/20 21:39:43;;;;;;;0.77;0.43;;;17.30;65.50;;;;;;10435033;28;20236;-58
2022/02/20 21:45:07;;;;;;;1.27;0.50;;;17.30;65.50;;;;;;10432612;28;20703;-58
2022/02/20 21:50:31;;;;;;;0.70;0.47;;;17.30;65.50;;;;;;10435485;28;20674;-60
2022/02/20 21:55:53;;;;;;;0.53;0.50;;;17.30;65.50;;;;;;10431296;28;21573;-58
2022/02/20 22:01:15;;;;;;;0.83;0.60;;;17.20;65.50;;;;;;10426515;28;20726;-58
2022/02/20 22:06:38;;;;;;;0.93;0.67;;;17.20;65.50;;;;;;10433124;28;20576;-58
2022/02/20 22:12:00;;;;;;;0.33;0.33;;;17.30;65.50;;;;;;10433818;28;20190;-59
2022/02/20 22:17:23;;;;;;;1.13;0.50;;;17.20;65.50;;;;;;10433445;28;20584;-59
2022/02/20 22:22:46;;;;;;;1.33;0.67;;;17.20;65.50;;;;;;10431275;28;20213;-58
2022/02/20 22:28:08;;;;;;;1.07;0.57;;;17.20;65.50;;;;;;10434202;28;20212;-59
2022/02/20 22:33:31;;;;;;;1.10;0.40;;;17.20;65.50;;;;;;10434301;28;20243;-57
2022/02/20 22:38:54;;;;;;;0.93;0.50;;;17.20;65.60;;;;;;10444036;28;20221;-58
2022/02/20 22:44:16;;;;;;;0.70;0.30;;;17.20;65.60;;;;;;10445321;28;20209;-59
2022/02/20 22:49:38;;;;;;;1.00;0.60;;;17.20;65.60;;;;;;10412507;28;20220;-60
2022/02/20 22:55:02;;;;;;;0.97;0.50;;;17.20;65.60;;;;;;10413274;28;20201;-60
2022/02/20 23:00:35;;;;;;;0.90;0.50;;;17.20;65.60;;;;;;10412649;28;20617;-59
2022/02/20 23:05:58;;;;;;;0.60;0.60;;;17.20;65.60;;;;;;10374405;28;20753;-60
2022/02/20 23:11:22;;;;;;;1.27;0.40;;;17.20;65.60;;;;;;10411848;28;20219;-59
2022/02/20 23:16:44;;;;;;;1.10;0.63;;;17.20;65.70;;;;;;10411526;28;20225;-61
2022/02/20 23:22:06;;;;;;;0.80;0.60;;;17.20;65.70;;;;;;10412155;28;20209;-57
2022/02/20 23:27:30;;;;;;;0.43;0.37;;;17.20;65.60;;;;;;10411889;28;20218;-60
2022/02/20 23:32:53;;;;;;;1.10;0.53;;;17.20;65.60;;;;;;10411298;28;20208;-59
2022/02/20 23:38:15;;;;;;;1.50;0.57;;;17.20;65.60;;;;;;10410498;28;20592;-59
2022/02/20 23:43:39;;;;;;;1.40;0.70;;;17.20;65.70;;;;;;10409656;28;20791;-59
2022/02/20 23:49:01;;;;;;;1.53;0.57;;;17.20;65.60;;;;;;10407048;28;20217;-59
2022/02/20 23:54:23;;;;;;;1.53;0.67;;;17.20;65.70;;;;;;10409991;28;20194;-59
2022/02/20 23:59:47;;;;;;;1.30;0.60;;;17.20;65.70;;;;;;10410773;28;20624;-60
